Time;durP1;ratioP1;P1;durP2;ratioP2;P2;SDS_P1;SDS_P2;PMS_P1;PMS_P2;Temp;Humidity;BMP_temperature;BMP_pressure;BME280_temperature;BME280_humidity;BME280_pressure;Samples;Min_cycle;Max_cycle;Signal;HPM_P1;HPM_P2
2022/09/24 00:03:06;;;;;;;8.47;7.47;;;14.40;99.90;;;;;;10375409;28;20309;-79
2022/09/24 00:08:08;;;;;;;9.30;8.17;;;14.40;99.90;;;;;;10350618;28;20218;-79
2022/09/24 00:13:13;;;;;;;6.40;5.90;;;14.40;99.90;;;;;;10373758;28;20674;-79
2022/09/24 00:18:20;;;;;;;6.37;5.83;;;14.40;99.90;;;;;;10351045;28;20230;-80
2022/09/24 00:23:22;;;;;;;7.73;6.93;;;14.40;99.90;;;;;;10372988;28;20314;-79
2022/09/24 00:28:24;;;;;;;6.30;5.90;;;14.50;99.90;;;;;;10358172;28;20286;-79
2022/09/24 00:33:28;;;;;;;48.57;18.93;;;14.50;99.90;;;;;;10372573;28;20246;-80
2022/09/24 00:38:30;;;;;;;6.90;6.30;;;14.50;99.90;;;;;;10355502;28;20222;-80
2022/09/24 00:43:34;;;;;;;6.20;5.70;;;14.50;99.90;;;;;;10375623;28;20225;-80
2022/09/24 00:48:39;;;;;;;6.53;5.50;;;14.50;99.90;;;;;;10348571;28;20275;-80
2022/09/24 00:53:42;;;;;;;6.97;6.27;;;14.50;99.90;;;;;;10372481;28;20207;-80
2022/09/24 00:58:51;;;;;;;6.70;6.27;;;14.40;99.90;;;;;;10358223;28;20602;-79
2022/09/24 01:03:56;;;;;;;8.00;7.00;;;14.40;99.90;;;;;;10340868;28;20228;-79
2022/09/24 01:08:59;;;;;;;6.93;6.43;;;14.40;99.90;;;;;;10369915;28;20298;-78
2022/09/24 01:14:30;;;;;;;8.97;7.47;;;14.30;99.90;;;;;;10344649;28;20623;-78
2022/09/24 01:19:54;;;;;;;9.40;8.03;;;14.30;99.90;;;;;;10364807;28;20238;-79
2022/09/24 01:25:00;;;;;;;6.80;6.30;;;14.20;99.90;;;;;;10352728;28;20210;-79
2022/09/24 01:30:06;;;;;;;8.57;7.30;;;14.20;99.90;;;;;;10362202;28;20231;-78
2022/09/24 01:35:14;;;;;;;7.43;6.83;;;14.20;99.90;;;;;;10359177;28;20601;-78
2022/09/24 01:40:18;;;;;;;8.37;7.67;;;14.20;99.90;;;;;;10360154;28;20227;-78
2022/09/24 01:45:22;;;;;;;8.17;7.47;;;14.10;99.90;;;;;;10349096;28;20202;-78
2022/09/24 01:50:25;;;;;;;7.97;7.37;;;14.10;99.90;;;;;;10360807;28;20216;-78
2022/09/24 01:55:31;;;;;;;9.10;7.63;;;14.00;99.90;;;;;;10345647;28;20192;-78
2022/09/24 02:00:37;;;;;;;8.70;8.00;;;14.00;99.90;;;;;;10348263;28;20237;-78
2022/09/24 02:05:45;;;;;;;10.00;9.20;;;13.90;99.90;;;;;;10357752;28;20279;-77
2022/09/24 02:10:53;;;;;;;9.07;8.23;;;13.80;99.90;;;;;;10346440;28;20294;-78
2022/09/24 02:16:02;;;;;;;9.70;8.90;;;13.80;99.90;;;;;;10356731;28;20210;-78
2022/09/24 02:21:07;;;;;;;9.00;8.30;;;13.70;99.90;;;;;;10347290;28;20218;-78
2022/09/24 02:26:10;;;;;;;12.00;9.47;;;13.70;99.90;;;;;;10341302;28;20278;-78
2022/09/24 02:31:18;;;;;;;8.93;8.10;;;13.70;99.90;;;;;;10352188;28;20573;-78
2022/09/24 02:36:23;;;;;;;9.40;8.50;;;13.70;99.90;;;;;;10358224;28;20601;-78
2022/09/24 02:41:26;;;;;;;8.20;7.40;;;13.70;99.90;;;;;;10353001;28;20218;-77
2022/09/24 02:46:30;;;;;;;8.80;8.20;;;13.80;99.90;;;;;;10353291;28;20196;-78
2022/09/24 02:51:32;;;;;;;8.97;8.17;;;13.80;99.90;;;;;;10311289;28;20663;-78
2022/09/24 02:56:34;;;;;;;8.77;8.07;;;13.90;99.90;;;;;;10321162;28;20191;-78
2022/09/24 03:01:37;;;;;;;15.90;12.33;;;13.80;99.90;;;;;;10346938;28;20597;-78
2022/09/24 03:06:39;;;;;;;29.30;20.10;;;13.90;99.90;;;;;;10358220;28;20199;-78
2022/09/24 03:11:41;;;;;;;9.23;8.53;;;13.90;99.90;;;;;;10348731;28;20220;-77
2022/09/24 03:16:45;;;;;;;8.90;8.00;;;13.90;99.90;;;;;;10360970;28;20282;-78
2022/09/24 03:21:47;;;;;;;8.43;7.63;;;13.90;99.90;;;;;;10342070;28;20207;-78
2022/09/24 03:26:49;;;;;;;10.60;9.10;;;14.00;99.90;;;;;;10355266;28;20613;-78
2022/09/24 03:31:52;;;;;;;8.30;7.70;;;14.00;99.90;;;;;;10339120;28;20285;-78
2022/09/24 03:36:54;;;;;;;8.37;7.67;;;14.00;99.90;;;;;;10360313;28;20225;-81
2022/09/24 03:41:56;;;;;;;10.73;9.70;;;14.00;99.90;;;;;;10346120;28;20639;-81
2022/09/24 03:47:00;;;;;;;9.67;8.87;;;14.00;99.90;;;;;;10362976;28;20243;-79
2022/09/24 03:52:02;;;;;;;9.60;8.90;;;14.10;99.90;;;;;;10346407;28;20575;-79
2022/09/24 03:57:04;;;;;;;8.40;7.70;;;14.10;99.90;;;;;;10371042;28;20301;-79
2022/09/24 04:02:08;;;;;;;9.20;8.60;;;14.20;99.90;;;;;;10364439;28;20254;-79
2022/09/24 04:07:10;;;;;;;8.70;8.00;;;14.20;99.90;;;;;;10349355;28;20297;-78
2022/09/24 04:12:13;;;;;;;8.93;8.23;;;14.20;99.90;;;;;;10371957;28;20274;-79
2022/09/24 04:17:17;;;;;;;10.07;9.37;;;14.30;99.90;;;;;;10346529;28;20238;-77
2022/09/24 04:22:19;;;;;;;8.70;8.07;;;14.30;99.90;;;;;;10358514;28;20227;-77
2022/09/24 04:27:21;;;;;;;9.70;9.00;;;14.30;99.90;;;;;;10312094;28;20249;-77
2022/09/24 04:32:24;;;;;;;10.07;9.13;;;14.30;99.90;;;;;;10365337;28;20321;-76
2022/09/24 04:37:27;;;;;;;10.10;9.43;;;14.40;99.90;;;;;;10325785;28;20265;-76
2022/09/24 04:42:29;;;;;;;11.17;10.37;;;14.40;99.90;;;;;;10365831;28;20222;-77
2022/09/24 04:47:32;;;;;;;12.43;11.23;;;14.40;99.90;;;;;;10341483;28;20305;-76
2022/09/24 04:52:34;;;;;;;11.17;10.03;;;14.50;99.90;;;;;;10366637;28;20290;-77
2022/09/24 04:57:36;;;;;;;11.80;11.00;;;14.40;99.90;;;;;;10346905;28;20219;-77
2022/09/24 05:02:40;;;;;;;11.43;10.53;;;14.40;99.90;;;;;;10339078;28;20218;-77
2022/09/24 05:07:43;;;;;;;11.40;10.60;;;14.40;99.90;;;;;;10365985;28;20238;-77
2022/09/24 05:12:45;;;;;;;10.67;9.77;;;14.40;99.90;;;;;;10338089;28;20237;-78
2022/09/24 05:17:48;;;;;;;9.37;8.77;;;14.40;99.90;;;;;;10360751;28;20686;-77
2022/09/24 05:22:50;;;;;;;11.10;10.30;;;14.30;99.90;;;;;;10366545;28;20314;-77
2022/09/24 05:27:54;;;;;;;10.70;10.00;;;14.30;99.90;;;;;;10341931;28;20215;-79
2022/09/24 05:32:57;;;;;;;11.13;10.30;;;14.30;99.90;;;;;;10379124;28;20609;-76
2022/09/24 05:37:59;;;;;;;11.50;10.47;;;14.30;99.90;;;;;;10373817;28;20215;-79
2022/09/24 05:43:02;;;;;;;11.53;10.73;;;14.30;99.90;;;;;;10320389;28;20225;-77
2022/09/24 05:48:06;;;;;;;10.77;9.97;;;14.30;99.90;;;;;;10312018;28;20702;-77
2022/09/24 05:53:08;;;;;;;42.23;31.33;;;14.30;99.90;;;;;;10314563;28;20242;-77
2022/09/24 05:58:11;;;;;;;25.97;21.70;;;14.30;99.90;;;;;;10342907;28;20214;-77
2022/09/24 06:03:16;;;;;;;15.30;14.10;;;14.40;99.90;;;;;;10334761;28;20215;-77
2022/09/24 06:08:20;;;;;;;12.97;12.07;;;14.40;99.90;;;;;;10366814;28;20423;-77
2022/09/24 06:13:22;;;;;;;11.97;11.17;;;14.40;99.90;;;;;;10329049;28;20581;-77
2022/09/24 06:18:25;;;;;;;12.47;11.57;;;14.50;99.90;;;;;;10367634;28;20297;-77
2022/09/24 06:23:28;;;;;;;13.17;11.90;;;14.70;99.90;;;;;;10331565;28;20207;-77
2022/09/24 06:28:30;;;;;;;11.90;10.87;;;14.70;99.90;;;;;;10367493;28;20683;-76
2022/09/24 06:33:33;;;;;;;11.60;10.67;;;14.80;99.90;;;;;;10328931;28;20210;-77
2022/09/24 06:38:35;;;;;;;11.73;10.80;;;14.90;99.90;;;;;;10368278;28;20305;-77
2022/09/24 06:43:38;;;;;;;12.87;11.87;;;15.00;99.90;;;;;;10338134;28;20242;-77
2022/09/24 06:48:41;;;;;;;11.90;11.00;;;15.10;99.90;;;;;;10370271;28;20645;-77
2022/09/24 06:53:43;;;;;;;12.83;11.93;;;15.20;99.90;;;;;;10334304;28;20617;-77
2022/09/24 06:58:45;;;;;;;12.47;11.53;;;15.20;99.90;;;;;;10340228;28;20222;-77
2022/09/24 07:03:49;;;;;;;13.37;12.17;;;15.30;99.90;;;;;;10372086;28;20222;-78
2022/09/24 07:08:51;;;;;;;13.27;12.20;;;15.30;99.90;;;;;;10371269;28;20241;-78
2022/09/24 07:13:53;;;;;;;12.13;11.13;;;15.40;99.90;;;;;;10330138;28;20624;-77
2022/09/24 07:18:57;;;;;;;11.97;11.03;;;15.50;99.90;;;;;;10370519;28;20270;-77
2022/09/24 07:23:59;;;;;;;12.93;11.70;;;15.60;99.90;;;;;;10331769;28;20219;-77
2022/09/24 07:29:01;;;;;;;13.27;12.17;;;15.70;99.90;;;;;;10370565;28;20215;-77
2022/09/24 07:34:07;;;;;;;11.80;10.90;;;15.80;99.90;;;;;;10333747;28;20282;-78
2022/09/24 07:39:09;;;;;;;15.57;14.37;;;15.90;99.90;;;;;;10371026;28;20219;-78
2022/09/24 07:44:12;;;;;;;12.60;11.50;;;15.90;99.90;;;;;;10342497;28;20334;-80
2022/09/24 07:49:16;;;;;;;10.90;9.90;;;16.00;99.90;;;;;;10381647;28;20627;-80
2022/09/24 07:54:18;;;;;;;12.07;11.17;;;16.10;99.90;;;;;;10346995;28;20270;-79
2022/09/24 07:59:20;;;;;;;10.87;10.10;;;16.20;99.90;;;;;;10348597;28;20301;-79
2022/09/24 08:04:23;;;;;;;11.53;10.63;;;16.30;99.90;;;;;;10386630;28;20222;-78
2022/09/24 08:09:25;;;;;;;13.77;12.53;;;16.30;99.90;;;;;;10349259;28;20219;-79
2022/09/24 08:14:27;;;;;;;12.80;11.80;;;16.50;99.90;;;;;;10379783;28;20636;-79
2022/09/24 08:19:32;;;;;;;12.90;11.80;;;16.50;99.90;;;;;;10348315;28;20230;-79
2022/09/24 08:24:34;;;;;;;13.57;12.27;;;16.70;99.90;;;;;;10378104;28;20222;-79
2022/09/24 08:29:36;;;;;;;14.40;13.10;;;16.70;99.90;;;;;;10349934;28;20219;-78
2022/09/24 08:34:39;;;;;;;13.13;12.10;;;16.80;99.90;;;;;;10375941;28;20644;-79
2022/09/24 08:39:41;;;;;;;13.30;12.20;;;16.90;99.90;;;;;;10346502;28;20223;-79
2022/09/24 08:50:15;;;;;;;12.97;11.97;;;17.40;99.90;;;;;;10345188;28;20268;-78
2022/09/24 08:55:22;;;;;;;11.07;10.20;;;17.60;99.90;;;;;;10377274;28;20218;-77
2022/09/24 09:00:24;;;;;;;12.20;11.10;;;17.80;99.90;;;;;;10379487;28;20229;-78
2022/09/24 09:05:48;;;;;;;10.40;9.60;;;18.00;99.90;;;;;;10342181;28;20215;-79
2022/09/24 09:10:57;;;;;;;10.80;9.93;;;18.10;99.90;;;;;;10379210;28;20713;-79
2022/09/24 09:16:05;;;;;;;10.07;9.27;;;18.10;99.90;;;;;;10297020;28;20192;-81
2022/09/24 09:21:17;;;;;;;7.35;6.85;;;18.10;99.90;;;;;;10456740;22;20232;-79
2022/09/24 09:26:20;;;;;;;6.40;5.97;;;18.10;99.90;;;;;;10421505;28;20190;-79
2022/09/24 09:31:35;;;;;;;6.20;5.80;;;18.00;99.90;;;;;;10460718;28;20201;-79
2022/09/24 09:36:52;;;;;;;6.77;6.20;;;18.00;99.90;;;;;;10464836;28;20201;-79
2022/09/24 09:42:03;;;;;;;6.00;5.70;;;18.00;99.90;;;;;;10464577;28;20201;-79
2022/09/24 09:47:16;;;;;;;5.83;5.53;;;18.00;99.90;;;;;;10463159;28;20283;-79
2022/09/24 09:52:23;;;;;;;6.13;5.77;;;17.90;99.90;;;;;;10459770;28;20626;-79
2022/09/24 09:57:26;;;;;;;6.73;6.43;;;17.80;99.90;;;;;;10460160;28;20213;-79
2022/09/24 10:02:32;;;;;;;7.47;6.90;;;17.80;99.90;;;;;;10441314;28;20308;-79
2022/09/24 10:07:44;;;;;;;6.30;6.00;;;17.80;99.90;;;;;;10459852;28;20271;-79
2022/09/24 10:12:47;;;;;;;7.43;7.03;;;17.80;99.90;;;;;;10458705;28;20204;-79
2022/09/24 10:17:51;;;;;;;6.77;6.37;;;17.80;99.90;;;;;;10458130;28;20217;-79
2022/09/24 10:22:58;;;;;;;7.07;6.60;;;17.90;99.90;;;;;;10456442;28;20205;-79
2022/09/24 10:33:22;;;;;;;7.50;6.90;;;18.00;99.90;;;;;;10454554;28;20234;-79
2022/09/24 10:38:26;;;;;;;6.60;6.20;;;18.00;99.90;;;;;;10457631;28;20266;-79
2022/09/24 10:43:30;;;;;;;6.90;6.50;;;17.90;99.90;;;;;;10469327;28;20217;-79
2022/09/24 10:48:39;;;;;;;5.43;5.10;;;17.90;99.90;;;;;;10468005;28;20302;-79
2022/09/24 10:53:54;;;;;;;6.17;5.87;;;17.90;99.90;;;;;;10466579;28;20197;-79
2022/09/24 10:59:26;;;;;;;6.53;5.63;;;18.00;99.90;;;;;;10465613;28;20299;-79
2022/09/24 11:04:47;;;;;;;6.40;6.10;;;18.00;99.90;;;;;;10464261;28;20224;-79
2022/09/24 11:09:55;;;;;;;6.00;5.70;;;17.90;99.90;;;;;;10463839;28;20714;-79
2022/09/24 11:15:10;;;;;;;7.07;6.67;;;17.80;99.90;;;;;;10463571;28;20203;-79
2022/09/24 11:20:35;;;;;;;7.57;7.17;;;17.80;99.90;;;;;;10471906;28;20224;-80
2022/09/24 11:25:47;;;;;;;8.97;7.00;;;17.80;99.90;;;;;;10470835;28;20217;-79
2022/09/24 11:30:58;;;;;;;6.23;5.83;;;17.80;99.90;;;;;;10470272;28;20217;-79
2022/09/24 11:36:15;;;;;;;5.73;5.43;;;17.80;99.90;;;;;;10469791;28;20288;-79
2022/09/24 11:41:31;;;;;;;5.43;5.10;;;17.80;99.90;;;;;;10471092;28;20248;-79
2022/09/24 11:46:47;;;;;;;6.50;6.10;;;17.70;99.90;;;;;;10455016;28;20185;-79
2022/09/24 11:51:56;;;;;;;6.40;6.10;;;17.80;99.90;;;;;;10470335;28;20299;-79
2022/09/24 11:57:06;;;;;;;6.40;6.10;;;17.80;99.90;;;;;;10468800;28;20196;-79
2022/09/24 12:02:15;;;;;;;5.60;5.20;;;17.80;99.90;;;;;;10462807;28;20231;-79
2022/09/24 12:07:24;;;;;;;6.07;5.57;;;17.80;99.90;;;;;;10444561;28;20208;-79
2022/09/24 12:12:33;;;;;;;7.00;6.50;;;17.90;99.90;;;;;;10461760;28;20189;-79
2022/09/24 12:17:40;;;;;;;9.80;9.00;;;17.90;99.90;;;;;;10461214;28;20217;-79
2022/09/24 12:22:44;;;;;;;8.53;7.93;;;18.00;99.90;;;;;;10464068;28;20213;-79
2022/09/24 12:27:48;;;;;;;8.50;7.90;;;18.00;99.90;;;;;;10443501;28;20754;-79
2022/09/24 12:32:59;;;;;;;9.37;8.87;;;18.00;99.90;;;;;;10463154;28;20219;-79
2022/09/24 12:38:06;;;;;;;7.80;7.20;;;18.00;99.90;;;;;;10465996;28;20213;-79
2022/09/24 12:43:23;;;;;;;7.90;7.40;;;17.90;99.90;;;;;;10461036;28;20236;-79
2022/09/24 12:48:26;;;;;;;8.10;7.50;;;17.80;99.90;;;;;;10461709;28;20591;-79
2022/09/24 12:53:34;;;;;;;9.07;8.43;;;17.70;99.90;;;;;;10443975;28;20193;-79
2022/09/24 12:58:39;;;;;;;8.47;7.97;;;17.70;99.90;;;;;;10444289;28;20409;-79
2022/09/24 13:03:42;;;;;;;9.10;8.50;;;17.70;99.90;;;;;;10461742;28;20216;-79
2022/09/24 13:08:44;;;;;;;10.67;9.67;;;17.70;99.90;;;;;;10461317;28;20213;-79
2022/09/24 13:13:59;;;;;;;9.77;9.07;;;17.90;99.90;;;;;;10460333;28;20197;-79
2022/09/24 13:19:01;;;;;;;8.93;8.33;;;18.10;99.90;;;;;;10442446;28;20217;-79
2022/09/24 13:24:11;;;;;;;10.20;9.30;;;18.20;99.90;;;;;;10457790;28;20220;-79
2022/09/24 13:29:24;;;;;;;9.80;9.10;;;18.20;99.90;;;;;;10460628;28;20298;-79
2022/09/24 13:34:28;;;;;;;9.73;9.13;;;18.10;99.90;;;;;;10458457;28;20212;-79
2022/09/24 13:39:36;;;;;;;10.90;10.20;;;18.00;99.90;;;;;;10458547;28;20681;-79
2022/09/24 13:44:43;;;;;;;11.53;10.40;;;17.90;99.90;;;;;;10459134;28;20217;-80
2022/09/24 13:49:47;;;;;;;11.90;11.00;;;17.80;99.90;;;;;;10457539;28;20669;-80
2022/09/24 13:54:55;;;;;;;13.87;12.87;;;17.60;99.90;;;;;;10457422;28;20223;-79
2022/09/24 14:00:15;;;;;;;14.27;13.37;;;17.40;99.90;;;;;;10438314;28;20228;-79
2022/09/24 14:05:19;;;;;;;16.77;15.73;;;17.30;99.90;;;;;;10459861;28;20294;-79
2022/09/24 14:10:24;;;;;;;14.83;13.50;;;17.20;99.90;;;;;;10464093;28;20224;-79
2022/09/24 14:15:30;;;;;;;20.30;18.90;;;17.10;99.90;;;;;;10460618;28;20524;-79
2022/09/24 14:20:35;;;;;;;18.83;17.53;;;17.30;99.90;;;;;;10439893;28;20229;-79
2022/09/24 14:25:38;;;;;;;19.40;18.10;;;17.30;99.90;;;;;;10465146;28;20256;-79
2022/09/24 14:30:50;;;;;;;18.00;16.70;;;17.30;99.90;;;;;;10459404;28;20252;-79
2022/09/24 14:35:54;;;;;;;18.03;16.47;;;17.30;99.90;;;;;;10455149;28;20276;-79
2022/09/24 14:41:01;;;;;;;17.27;16.07;;;17.30;99.90;;;;;;10438430;28;20225;-80
2022/09/24 14:46:08;;;;;;;17.10;15.80;;;17.30;99.90;;;;;;10438066;28;20209;-80
2022/09/24 14:51:25;;;;;;;18.00;16.90;;;17.30;99.90;;;;;;10456182;28;20299;-80
2022/09/24 14:56:29;;;;;;;17.83;16.53;;;17.20;99.90;;;;;;10438002;28;20197;-79
2022/09/24 15:01:33;;;;;;;17.20;16.03;;;17.20;99.90;;;;;;10455386;28;20213;-80
2022/09/24 15:06:38;;;;;;;18.53;17.13;;;17.20;99.90;;;;;;10453053;28;20217;-79
2022/09/24 15:11:41;;;;;;;18.93;17.63;;;17.20;99.90;;;;;;10437826;28;20217;-80
2022/09/24 15:16:46;;;;;;;17.33;16.03;;;17.20;99.90;;;;;;10454899;28;20185;-79
2022/09/24 15:21:50;;;;;;;17.43;16.20;;;17.20;99.90;;;;;;10448219;23;20234;-78
2022/09/24 15:27:01;;;;;;;18.00;16.90;;;17.20;99.90;;;;;;10422977;28;20248;-78
2022/09/24 15:32:15;;;;;;;16.77;15.67;;;17.20;99.90;;;;;;10382698;28;20273;-78
2022/09/24 15:37:20;;;;;;;18.07;16.87;;;17.20;99.90;;;;;;10335929;28;20206;-78
2022/09/24 15:42:24;;;;;;;19.65;18.05;;;17.20;99.90;;;;;;10336059;28;20221;-78
2022/09/24 15:47:27;;;;;;;17.90;16.60;;;17.30;99.90;;;;;;10376732;28;20199;-78
2022/09/24 15:52:32;;;;;;;17.37;15.90;;;17.30;99.90;;;;;;10375865;28;20258;-78
2022/09/24 15:57:34;;;;;;;17.40;15.90;;;17.30;99.90;;;;;;10375496;28;20190;-80
2022/09/24 16:02:38;;;;;;;18.40;16.73;;;17.30;99.90;;;;;;10381134;28;20206;-80
2022/09/24 16:07:40;;;;;;;21.10;19.30;;;17.40;99.90;;;;;;10384515;28;20254;-79
2022/09/24 16:12:43;;;;;;;19.10;17.60;;;17.30;99.90;;;;;;10385647;28;20207;-79
2022/09/24 16:17:49;;;;;;;24.73;22.30;;;17.20;99.90;;;;;;10383356;28;20194;-80
2022/09/24 16:22:51;;;;;;;21.33;19.50;;;17.10;99.90;;;;;;10384279;28;20202;-80
2022/09/24 16:27:55;;;;;;;19.37;17.87;;;17.00;99.90;;;;;;10389256;28;20203;-80
2022/09/24 16:32:58;;;;;;;20.70;19.07;;;17.00;99.90;;;;;;10386933;28;20198;-80
2022/09/24 16:38:00;;;;;;;20.13;18.53;;;17.00;99.90;;;;;;10383500;28;20297;-79
2022/09/24 16:43:02;;;;;;;17.10;15.80;;;17.00;99.90;;;;;;10383021;28;20277;-80
2022/09/24 16:48:06;;;;;;;21.57;19.67;;;16.90;99.90;;;;;;10383982;28;20293;-79
2022/09/24 16:53:08;;;;;;;19.60;17.90;;;16.90;99.90;;;;;;10372947;28;20551;-78
2022/09/24 16:58:10;;;;;;;21.20;19.50;;;16.90;99.90;;;;;;10381660;28;20736;-79
2022/09/24 17:03:13;;;;;;;22.70;20.70;;;16.80;99.90;;;;;;10377964;28;20214;-77
2022/09/24 17:08:15;;;;;;;38.40;30.80;;;16.80;99.90;;;;;;10375681;28;20238;-80
2022/09/24 17:13:25;;;;;;;35.03;31.40;;;16.70;99.90;;;;;;10375935;28;20203;-80
2022/09/24 17:18:29;;;;;;;24.13;21.63;;;16.70;99.90;;;;;;10407275;28;20229;-81
2022/09/24 17:23:31;;;;;;;20.43;18.80;;;16.60;99.90;;;;;;10400382;28;20356;-77
2022/09/24 17:28:34;;;;;;;16.53;15.13;;;16.60;99.90;;;;;;10370806;28;20254;-81
2022/09/24 17:33:38;;;;;;;19.50;17.90;;;16.60;99.90;;;;;;10384787;28;20218;-81
2022/09/24 17:38:40;;;;;;;17.10;15.90;;;16.50;99.90;;;;;;10386279;28;20642;-81
2022/09/24 17:43:42;;;;;;;21.10;19.40;;;16.50;99.90;;;;;;10386275;28;20207;-79
2022/09/24 17:48:50;;;;;;;19.60;18.20;;;16.40;99.90;;;;;;10395101;28;20218;-79
2022/09/24 17:53:54;;;;;;;18.43;16.93;;;16.30;99.90;;;;;;10397456;28;20218;-81
2022/09/24 17:58:56;;;;;;;19.87;18.17;;;16.30;99.90;;;;;;10385153;28;20523;-81
2022/09/24 18:04:00;;;;;;;20.10;18.40;;;16.30;99.90;;;;;;10393165;28;20222;-81
2022/09/24 18:09:02;;;;;;;17.87;16.60;;;16.30;99.90;;;;;;10384437;28;20214;-81
2022/09/24 18:14:04;;;;;;;15.93;14.73;;;16.30;99.90;;;;;;10400260;28;20203;-81
2022/09/24 18:19:09;;;;;;;18.70;17.30;;;16.30;99.90;;;;;;10400510;28;20222;-81
2022/09/24 18:24:11;;;;;;;14.80;13.90;;;16.30;99.90;;;;;;10384943;28;20289;-80
2022/09/24 18:29:15;;;;;;;13.17;12.17;;;16.20;99.90;;;;;;10396447;28;20293;-80
2022/09/24 18:34:18;;;;;;;17.97;16.57;;;16.20;99.90;;;;;;10380471;28;20230;-79
2022/09/24 18:39:21;;;;;;;17.70;16.30;;;16.20;99.90;;;;;;10385408;28;20679;-81
2022/09/24 18:44:23;;;;;;;16.67;15.37;;;16.20;99.90;;;;;;10392595;28;20218;-81
2022/09/24 18:49:26;;;;;;;19.40;17.80;;;16.10;99.90;;;;;;10393542;28;20219;-80
2022/09/24 18:54:29;;;;;;;21.63;19.80;;;16.10;99.90;;;;;;10393463;28;20198;-79
2022/09/24 18:59:37;;;;;;;17.83;16.53;;;16.10;99.90;;;;;;10392435;28;20245;-79
2022/09/24 19:04:40;;;;;;;15.50;14.40;;;16.10;99.90;;;;;;10393306;28;20222;-80
2022/09/24 19:09:42;;;;;;;20.43;18.63;;;16.20;99.90;;;;;;10391868;28;20693;-80
2022/09/24 19:14:46;;;;;;;22.13;20.33;;;16.10;99.90;;;;;;10415824;28;20217;-79
2022/09/24 19:19:50;;;;;;;20.57;18.97;;;16.00;99.90;;;;;;10377577;28;20226;-80
2022/09/24 19:24:52;;;;;;;20.73;19.13;;;16.00;99.90;;;;;;10395953;28;20221;-79
2022/09/24 19:29:54;;;;;;;41.80;34.43;;;15.90;99.90;;;;;;10387612;28;20708;-80
2022/09/24 19:34:57;;;;;;;57.47;44.23;;;15.90;99.90;;;;;;10383316;28;20213;-77
2022/09/24 19:39:59;;;;;;;23.90;21.87;;;15.80;99.90;;;;;;10390370;28;20569;-77
2022/09/24 19:45:03;;;;;;;22.93;21.10;;;15.70;99.90;;;;;;10398539;28;20210;-78
2022/09/24 19:50:07;;;;;;;21.03;19.43;;;15.70;99.90;;;;;;10382612;28;20583;-76
2022/09/24 19:55:10;;;;;;;22.30;20.80;;;15.70;99.90;;;;;;10385950;28;20206;-78
2022/09/24 20:00:13;;;;;;;21.27;19.77;;;15.60;99.90;;;;;;10365820;28;20225;-78
2022/09/24 20:05:16;;;;;;;22.77;21.10;;;15.60;99.90;;;;;;10384499;28;20245;-79
2022/09/24 20:10:19;;;;;;;25.53;23.53;;;15.60;99.90;;;;;;10383115;28;20225;-78
2022/09/24 20:15:21;;;;;;;17.20;16.10;;;15.50;99.90;;;;;;10404463;28;20198;-78
2022/09/24 20:20:25;;;;;;;19.40;18.00;;;15.60;99.90;;;;;;10382901;28;20290;-76
2022/09/24 20:30:43;;;;;;;15.67;14.67;;;15.50;99.90;;;;;;10377431;28;20249;-80
2022/09/24 20:35:47;;;;;;;18.20;16.87;;;15.40;99.90;;;;;;10378747;28;20681;-79
2022/09/24 20:40:49;;;;;;;16.47;15.10;;;15.40;99.90;;;;;;10380506;28;20222;-79
2022/09/24 20:45:51;;;;;;;18.30;16.70;;;15.50;99.90;;;;;;10379196;28;20218;-79
2022/09/24 20:50:55;;;;;;;16.80;15.50;;;15.50;99.90;;;;;;10384973;28;20309;-79
2022/09/24 20:55:58;;;;;;;17.90;16.47;;;15.50;99.90;;;;;;10391180;28;20190;-79
2022/09/24 21:01:01;;;;;;;25.30;22.90;;;15.40;99.90;;;;;;10379520;28;20218;-79
2022/09/24 21:06:06;;;;;;;14.20;13.20;;;15.40;99.90;;;;;;10396560;28;20280;-79
2022/09/24 21:11:10;;;;;;;13.97;12.80;;;15.30;99.90;;;;;;10390404;28;20628;-79
2022/09/24 21:16:12;;;;;;;30.33;21.63;;;15.30;99.90;;;;;;10393605;28;20194;-80
2022/09/24 21:21:17;;;;;;;20.63;19.10;;;15.30;99.90;;;;;;10372046;28;20296;-78
2022/09/24 21:26:21;;;;;;;19.20;17.80;;;15.20;99.90;;;;;;10375769;28;20313;-77
2022/09/24 21:31:26;;;;;;;17.90;16.37;;;15.20;99.90;;;;;;10381519;28;20233;-78
2022/09/24 21:36:31;;;;;;;17.30;16.10;;;15.20;99.90;;;;;;10390963;28;20202;-78
2022/09/24 21:41:36;;;;;;;19.67;17.97;;;15.20;99.90;;;;;;10371711;28;20612;-77
2022/09/24 21:46:39;;;;;;;20.63;19.03;;;15.20;99.90;;;;;;10370379;28;20650;-77
2022/09/24 21:51:42;;;;;;;19.83;18.03;;;15.20;99.90;;;;;;10381701;28;20214;-77
2022/09/24 21:56:45;;;;;;;21.60;19.83;;;15.20;99.90;;;;;;10354855;28;20198;-77
2022/09/24 22:01:47;;;;;;;21.27;19.63;;;15.20;99.90;;;;;;10370140;28;20713;-78
2022/09/24 22:06:51;;;;;;;18.17;16.77;;;15.10;99.90;;;;;;10364745;28;20226;-78
2022/09/24 22:11:54;;;;;;;19.40;17.70;;;15.10;99.90;;;;;;10371820;28;20222;-78
2022/09/24 22:16:56;;;;;;;18.47;17.03;;;15.10;99.90;;;;;;10366759;28;20214;-78
2022/09/24 22:22:00;;;;;;;20.97;19.37;;;15.10;99.90;;;;;;10371441;28;20234;-78
2022/09/24 22:27:03;;;;;;;18.10;16.47;;;15.20;99.90;;;;;;10372341;28;20309;-76
2022/09/24 22:32:05;;;;;;;17.73;16.17;;;15.20;99.90;;;;;;10370618;28;20722;-78
2022/09/24 22:37:08;;;;;;;16.60;15.30;;;15.20;99.90;;;;;;10370216;28;20190;-78
2022/09/24 22:42:13;;;;;;;16.13;14.53;;;15.20;99.90;;;;;;10371224;28;20218;-77
2022/09/24 22:47:15;;;;;;;15.47;14.37;;;15.30;99.90;;;;;;10373645;28;20222;-78
2022/09/24 22:52:18;;;;;;;14.77;13.67;;;15.30;99.90;;;;;;10371604;28;20313;-76
2022/09/24 22:57:20;;;;;;;14.30;13.33;;;15.30;99.90;;;;;;10375837;28;20192;-78
2022/09/24 23:02:22;;;;;;;15.20;14.20;;;15.30;99.90;;;;;;10370311;28;20706;-77
2022/09/24 23:07:26;;;;;;;13.87;12.67;;;15.30;99.90;;;;;;10369791;28;20313;-77
2022/09/24 23:12:31;;;;;;;11.57;10.57;;;15.30;99.90;;;;;;10369458;28;20222;-78
2022/09/24 23:17:38;;;;;;;13.33;12.33;;;15.30;99.90;;;;;;10370726;28;20195;-78
2022/09/24 23:22:41;;;;;;;14.20;13.20;;;15.30;99.90;;;;;;10370580;28;20195;-78
2022/09/24 23:27:43;;;;;;;14.60;13.40;;;15.30;99.90;;;;;;10369986;28;20223;-78
2022/09/24 23:32:45;;;;;;;13.03;11.93;;;15.30;99.90;;;;;;10371436;28;20281;-77
2022/09/24 23:37:48;;;;;;;14.10;13.10;;;15.30;99.90;;;;;;10369548;28;20194;-77
2022/09/24 23:42:51;;;;;;;14.80;13.60;;;15.30;99.90;;;;;;10369155;28;20203;-77
2022/09/24 23:47:53;;;;;;;92.93;49.03;;;15.30;99.90;;;;;;10368840;28;20241;-78
2022/09/24 23:52:56;;;;;;;23.37;20.97;;;15.30;99.90;;;;;;10369761;28;20190;-78
2022/09/24 23:58:02;;;;;;;17.03;15.67;;;15.30;99.90;;;;;;10368779;28;20268;-78
